Terminal Aerodrome Forecast
Issued by NWS Sterling, VA

Home | Current Version | Previous Version | Text Only | Print | Product List | Glossary On
Versions: 1 2 3 4 5 6 7 8 9 10 11 12 13 14 15 16 17 18 19 20 21
433
FTUS41 KLWX 291730
TAFBWI
TAF
KBWI 291730Z 2918/3024 28004KT P6SM SCT015 BKN035
     FM300000 13005KT P6SM BKN040
     FM300200 11005KT P6SM BKN015
     FM300300 11005KT P6SM BKN008
     FM300600 11005KT 3SM BR BKN003
     FM301500 14006KT P6SM OVC010
     FM302100 15007KT P6SM BKN020=

USA.gov is the U.S. government's official web portal to all federal, state and local government web resources and services.